sensor_id;sensor_type;location;lat;lon;timestamp;P1;durP1;ratioP1;P2;durP2;ratioP2
13406;SDS011;6774;48.208;10.766;2023-06-19T00:01:18;7.97;;;6.80;;
13406;SDS011;6774;48.208;10.766;2023-06-19T00:03:46;7.50;;;7.03;;
13406;SDS011;6774;48.208;10.766;2023-06-19T00:06:14;6.53;;;6.13;;
13406;SDS011;6774;48.208;10.766;2023-06-19T00:08:42;7.23;;;6.73;;
13406;SDS011;6774;48.208;10.766;2023-06-19T00:11:09;7.63;;;7.03;;
13406;SDS011;6774;48.208;10.766;2023-06-19T00:13:37;7.43;;;6.93;;
13406;SDS011;6774;48.208;10.766;2023-06-19T00:16:07;8.00;;;7.40;;
13406;SDS011;6774;48.208;10.766;2023-06-19T00:18:35;7.27;;;6.67;;
13406;SDS011;6774;48.208;10.766;2023-06-19T00:21:06;6.37;;;6.07;;
13406;SDS011;6774;48.208;10.766;2023-06-19T00:23:34;6.63;;;6.03;;
13406;SDS011;6774;48.208;10.766;2023-06-19T00:26:02;7.00;;;6.60;;
13406;SDS011;6774;48.208;10.766;2023-06-19T00:28:31;6.30;;;6.00;;
13406;SDS011;6774;48.208;10.766;2023-06-19T00:30:59;6.07;;;5.70;;
13406;SDS011;6774;48.208;10.766;2023-06-19T00:33:28;7.23;;;6.73;;
13406;SDS011;6774;48.208;10.766;2023-06-19T00:35:56;9.20;;;7.50;;
13406;SDS011;6774;48.208;10.766;2023-06-19T00:38:24;7.43;;;6.67;;
13406;SDS011;6774;48.208;10.766;2023-06-19T00:40:52;7.77;;;7.20;;
13406;SDS011;6774;48.208;10.766;2023-06-19T00:43:20;8.70;;;7.83;;
13406;SDS011;6774;48.208;10.766;2023-06-19T00:45:48;6.63;;;6.27;;
13406;SDS011;6774;48.208;10.766;2023-06-19T00:48:16;6.67;;;6.27;;
13406;SDS011;6774;48.208;10.766;2023-06-19T00:50:45;7.10;;;6.57;;
13406;SDS011;6774;48.208;10.766;2023-06-19T00:53:12;7.40;;;7.00;;
13406;SDS011;6774;48.208;10.766;2023-06-19T00:55:40;7.80;;;7.30;;
13406;SDS011;6774;48.208;10.766;2023-06-19T00:58:09;7.57;;;7.07;;
13406;SDS011;6774;48.208;10.766;2023-06-19T01:00:37;6.77;;;6.37;;
13406;SDS011;6774;48.208;10.766;2023-06-19T01:03:06;7.13;;;6.53;;
13406;SDS011;6774;48.208;10.766;2023-06-19T01:05:34;7.83;;;7.20;;
13406;SDS011;6774;48.208;10.766;2023-06-19T01:08:05;6.40;;;6.10;;
13406;SDS011;6774;48.208;10.766;2023-06-19T01:10:38;9.43;;;8.63;;
13406;SDS011;6774;48.208;10.766;2023-06-19T01:13:10;9.17;;;8.30;;
13406;SDS011;6774;48.208;10.766;2023-06-19T01:15:42;9.47;;;8.47;;
13406;SDS011;6774;48.208;10.766;2023-06-19T01:18:11;9.47;;;8.67;;
13406;SDS011;6774;48.208;10.766;2023-06-19T01:20:41;8.80;;;8.07;;
13406;SDS011;6774;48.208;10.766;2023-06-19T01:23:11;8.43;;;7.73;;
13406;SDS011;6774;48.208;10.766;2023-06-19T01:25:39;11.60;;;10.67;;
13406;SDS011;6774;48.208;10.766;2023-06-19T01:28:07;9.93;;;8.90;;
13406;SDS011;6774;48.208;10.766;2023-06-19T01:30:40;10.17;;;8.87;;
13406;SDS011;6774;48.208;10.766;2023-06-19T01:33:11;9.43;;;8.73;;
13406;SDS011;6774;48.208;10.766;2023-06-19T01:35:43;9.10;;;8.50;;
13406;SDS011;6774;48.208;10.766;2023-06-19T01:38:14;7.87;;;7.37;;
13406;SDS011;6774;48.208;10.766;2023-06-19T01:40:43;7.53;;;7.13;;
13406;SDS011;6774;48.208;10.766;2023-06-19T01:43:12;8.10;;;7.50;;
13406;SDS011;6774;48.208;10.766;2023-06-19T01:45:40;8.73;;;8.23;;
13406;SDS011;6774;48.208;10.766;2023-06-19T01:48:08;9.07;;;8.27;;
13406;SDS011;6774;48.208;10.766;2023-06-19T01:50:37;9.20;;;8.33;;
13406;SDS011;6774;48.208;10.766;2023-06-19T01:53:05;8.43;;;7.67;;
13406;SDS011;6774;48.208;10.766;2023-06-19T01:55:34;8.20;;;7.63;;
13406;SDS011;6774;48.208;10.766;2023-06-19T01:58:02;7.70;;;7.30;;
13406;SDS011;6774;48.208;10.766;2023-06-19T02:00:30;8.10;;;7.60;;
13406;SDS011;6774;48.208;10.766;2023-06-19T02:03:01;7.70;;;7.30;;
13406;SDS011;6774;48.208;10.766;2023-06-19T02:05:29;8.60;;;8.20;;
13406;SDS011;6774;48.208;10.766;2023-06-19T02:08:00;10.77;;;10.03;;
13406;SDS011;6774;48.208;10.766;2023-06-19T02:10:28;8.50;;;8.00;;
13406;SDS011;6774;48.208;10.766;2023-06-19T02:12:57;14.30;;;10.30;;
13406;SDS011;6774;48.208;10.766;2023-06-19T02:15:25;9.43;;;8.90;;
13406;SDS011;6774;48.208;10.766;2023-06-19T02:17:54;10.93;;;9.73;;
13406;SDS011;6774;48.208;10.766;2023-06-19T02:20:24;9.27;;;8.77;;
13406;SDS011;6774;48.208;10.766;2023-06-19T02:22:55;10.63;;;9.80;;
13406;SDS011;6774;48.208;10.766;2023-06-19T02:25:23;12.83;;;11.83;;
13406;SDS011;6774;48.208;10.766;2023-06-19T02:27:50;15.43;;;10.93;;
13406;SDS011;6774;48.208;10.766;2023-06-19T02:30:21;11.13;;;10.20;;
13406;SDS011;6774;48.208;10.766;2023-06-19T02:32:49;10.33;;;9.63;;
13406;SDS011;6774;48.208;10.766;2023-06-19T02:35:18;9.63;;;8.73;;
13406;SDS011;6774;48.208;10.766;2023-06-19T02:37:46;10.37;;;9.63;;
13406;SDS011;6774;48.208;10.766;2023-06-19T02:40:14;10.10;;;9.40;;
13406;SDS011;6774;48.208;10.766;2023-06-19T02:42:42;10.20;;;9.53;;
13406;SDS011;6774;48.208;10.766;2023-06-19T02:45:10;9.77;;;8.93;;
13406;SDS011;6774;48.208;10.766;2023-06-19T02:47:39;13.47;;;12.20;;
13406;SDS011;6774;48.208;10.766;2023-06-19T02:50:07;11.03;;;10.23;;
13406;SDS011;6774;48.208;10.766;2023-06-19T02:52:35;11.70;;;10.80;;
13406;SDS011;6774;48.208;10.766;2023-06-19T02:55:04;9.93;;;9.13;;
13406;SDS011;6774;48.208;10.766;2023-06-19T02:57:34;10.63;;;9.67;;
13406;SDS011;6774;48.208;10.766;2023-06-19T03:00:02;10.03;;;9.30;;
13406;SDS011;6774;48.208;10.766;2023-06-19T03:02:32;11.57;;;10.47;;
13406;SDS011;6774;48.208;10.766;2023-06-19T03:05:01;11.37;;;10.43;;
13406;SDS011;6774;48.208;10.766;2023-06-19T03:07:29;10.97;;;10.10;;
13406;SDS011;6774;48.208;10.766;2023-06-19T03:09:57;9.80;;;9.10;;
13406;SDS011;6774;48.208;10.766;2023-06-19T03:12:25;10.40;;;9.50;;
13406;SDS011;6774;48.208;10.766;2023-06-19T03:14:52;11.87;;;10.90;;
13406;SDS011;6774;48.208;10.766;2023-06-19T03:17:22;11.57;;;10.80;;
13406;SDS011;6774;48.208;10.766;2023-06-19T03:19:50;10.20;;;9.50;;
13406;SDS011;6774;48.208;10.766;2023-06-19T03:22:20;10.00;;;9.40;;
13406;SDS011;6774;48.208;10.766;2023-06-19T03:24:49;11.17;;;10.17;;
13406;SDS011;6774;48.208;10.766;2023-06-19T03:27:20;10.80;;;8.43;;
13406;SDS011;6774;48.208;10.766;2023-06-19T03:29:48;13.53;;;10.13;;
13406;SDS011;6774;48.208;10.766;2023-06-19T03:32:23;9.20;;;8.23;;
13406;SDS011;6774;48.208;10.766;2023-06-19T03:34:51;14.00;;;8.77;;
13406;SDS011;6774;48.208;10.766;2023-06-19T03:37:20;8.70;;;8.20;;
13406;SDS011;6774;48.208;10.766;2023-06-19T03:39:48;8.30;;;7.70;;
13406;SDS011;6774;48.208;10.766;2023-06-19T03:42:16;8.13;;;7.70;;
13406;SDS011;6774;48.208;10.766;2023-06-19T03:44:43;7.77;;;7.27;;
13406;SDS011;6774;48.208;10.766;2023-06-19T03:47:11;6.83;;;6.47;;
13406;SDS011;6774;48.208;10.766;2023-06-19T03:49:39;9.47;;;8.87;;
13406;SDS011;6774;48.208;10.766;2023-06-19T03:52:07;8.73;;;8.23;;
13406;SDS011;6774;48.208;10.766;2023-06-19T03:54:36;8.10;;;7.67;;
13406;SDS011;6774;48.208;10.766;2023-06-19T03:57:04;9.43;;;8.63;;
13406;SDS011;6774;48.208;10.766;2023-06-19T03:59:34;11.03;;;10.07;;
13406;SDS011;6774;48.208;10.766;2023-06-19T04:02:02;8.97;;;8.37;;
13406;SDS011;6774;48.208;10.766;2023-06-19T04:04:30;8.67;;;8.03;;
13406;SDS011;6774;48.208;10.766;2023-06-19T04:06:58;7.83;;;7.37;;
13406;SDS011;6774;48.208;10.766;2023-06-19T04:09:26;6.37;;;5.97;;
13406;SDS011;6774;48.208;10.766;2023-06-19T04:11:55;7.23;;;6.80;;
13406;SDS011;6774;48.208;10.766;2023-06-19T04:14:23;7.50;;;6.90;;
13406;SDS011;6774;48.208;10.766;2023-06-19T04:16:53;7.03;;;6.40;;
13406;SDS011;6774;48.208;10.766;2023-06-19T04:19:21;8.43;;;6.43;;
13406;SDS011;6774;48.208;10.766;2023-06-19T04:21:49;5.83;;;5.37;;
13406;SDS011;6774;48.208;10.766;2023-06-19T04:24:16;6.43;;;6.03;;
13406;SDS011;6774;48.208;10.766;2023-06-19T04:26:45;5.93;;;5.40;;
13406;SDS011;6774;48.208;10.766;2023-06-19T04:29:15;10.00;;;5.47;;
13406;SDS011;6774;48.208;10.766;2023-06-19T04:31:43;5.27;;;4.97;;
13406;SDS011;6774;48.208;10.766;2023-06-19T04:34:13;5.60;;;5.20;;
13406;SDS011;6774;48.208;10.766;2023-06-19T04:36:43;5.70;;;5.40;;
13406;SDS011;6774;48.208;10.766;2023-06-19T04:39:11;20.60;;;8.13;;
13406;SDS011;6774;48.208;10.766;2023-06-19T04:41:38;15.00;;;8.23;;
13406;SDS011;6774;48.208;10.766;2023-06-19T04:44:07;5.47;;;5.17;;
13406;SDS011;6774;48.208;10.766;2023-06-19T04:46:36;5.17;;;4.77;;
13406;SDS011;6774;48.208;10.766;2023-06-19T04:49:05;6.30;;;5.90;;
13406;SDS011;6774;48.208;10.766;2023-06-19T04:51:33;4.83;;;4.53;;
13406;SDS011;6774;48.208;10.766;2023-06-19T04:54:01;6.07;;;5.47;;
13406;SDS011;6774;48.208;10.766;2023-06-19T04:56:29;5.20;;;5.00;;
13406;SDS011;6774;48.208;10.766;2023-06-19T04:58:56;5.23;;;4.83;;
13406;SDS011;6774;48.208;10.766;2023-06-19T05:01:26;6.00;;;5.67;;
13406;SDS011;6774;48.208;10.766;2023-06-19T05:03:56;5.83;;;5.43;;
13406;SDS011;6774;48.208;10.766;2023-06-19T05:06:26;8.30;;;6.87;;
13406;SDS011;6774;48.208;10.766;2023-06-19T05:08:53;5.77;;;5.47;;
13406;SDS011;6774;48.208;10.766;2023-06-19T05:11:21;5.23;;;4.93;;
13406;SDS011;6774;48.208;10.766;2023-06-19T05:13:49;5.10;;;4.70;;
13406;SDS011;6774;48.208;10.766;2023-06-19T05:16:16;6.33;;;5.93;;
13406;SDS011;6774;48.208;10.766;2023-06-19T05:18:46;5.87;;;5.47;;
13406;SDS011;6774;48.208;10.766;2023-06-19T05:21:15;20.23;;;7.10;;
13406;SDS011;6774;48.208;10.766;2023-06-19T05:23:43;5.33;;;5.03;;
13406;SDS011;6774;48.208;10.766;2023-06-19T05:26:10;5.23;;;5.00;;
13406;SDS011;6774;48.208;10.766;2023-06-19T05:28:39;6.50;;;5.53;;
13406;SDS011;6774;48.208;10.766;2023-06-19T05:31:07;5.97;;;5.47;;
13406;SDS011;6774;48.208;10.766;2023-06-19T05:33:35;6.63;;;5.60;;
13406;SDS011;6774;48.208;10.766;2023-06-19T05:36:03;6.43;;;6.03;;
13406;SDS011;6774;48.208;10.766;2023-06-19T05:38:32;5.13;;;4.73;;
13406;SDS011;6774;48.208;10.766;2023-06-19T05:41:01;5.90;;;5.57;;
13406;SDS011;6774;48.208;10.766;2023-06-19T05:43:29;5.23;;;4.87;;
13406;SDS011;6774;48.208;10.766;2023-06-19T05:45:57;5.90;;;5.50;;
13406;SDS011;6774;48.208;10.766;2023-06-19T05:48:25;6.40;;;5.90;;
13406;SDS011;6774;48.208;10.766;2023-06-19T05:50:53;7.77;;;5.90;;
13406;SDS011;6774;48.208;10.766;2023-06-19T05:53:21;5.20;;;4.93;;
13406;SDS011;6774;48.208;10.766;2023-06-19T05:55:50;5.90;;;5.60;;
13406;SDS011;6774;48.208;10.766;2023-06-19T05:58:18;6.07;;;5.70;;
13406;SDS011;6774;48.208;10.766;2023-06-19T06:00:46;4.87;;;4.57;;
13406;SDS011;6774;48.208;10.766;2023-06-19T06:03:14;5.10;;;4.80;;
13406;SDS011;6774;48.208;10.766;2023-06-19T06:05:42;4.97;;;4.57;;
13406;SDS011;6774;48.208;10.766;2023-06-19T06:08:09;6.43;;;5.93;;
13406;SDS011;6774;48.208;10.766;2023-06-19T06:10:37;5.47;;;5.17;;
13406;SDS011;6774;48.208;10.766;2023-06-19T06:13:06;5.73;;;4.97;;
13406;SDS011;6774;48.208;10.766;2023-06-19T06:15:34;4.60;;;4.10;;
13406;SDS011;6774;48.208;10.766;2023-06-19T06:18:01;6.13;;;5.80;;
13406;SDS011;6774;48.208;10.766;2023-06-19T06:20:30;5.40;;;5.10;;
13406;SDS011;6774;48.208;10.766;2023-06-19T06:22:57;4.60;;;4.40;;
13406;SDS011;6774;48.208;10.766;2023-06-19T06:25:25;5.40;;;4.63;;
13406;SDS011;6774;48.208;10.766;2023-06-19T06:27:53;6.40;;;6.00;;
13406;SDS011;6774;48.208;10.766;2023-06-19T06:30:22;5.30;;;5.07;;
13406;SDS011;6774;48.208;10.766;2023-06-19T06:32:50;4.90;;;4.50;;
13406;SDS011;6774;48.208;10.766;2023-06-19T06:35:18;5.03;;;4.73;;
13406;SDS011;6774;48.208;10.766;2023-06-19T06:37:46;3.93;;;3.67;;
13406;SDS011;6774;48.208;10.766;2023-06-19T06:40:16;5.03;;;4.83;;
13406;SDS011;6774;48.208;10.766;2023-06-19T06:42:44;5.33;;;4.97;;
13406;SDS011;6774;48.208;10.766;2023-06-19T06:45:11;4.30;;;4.10;;
13406;SDS011;6774;48.208;10.766;2023-06-19T06:47:41;5.27;;;4.97;;
13406;SDS011;6774;48.208;10.766;2023-06-19T06:50:09;4.67;;;4.37;;
13406;SDS011;6774;48.208;10.766;2023-06-19T06:52:37;5.50;;;5.20;;
13406;SDS011;6774;48.208;10.766;2023-06-19T06:55:06;5.93;;;5.53;;
13406;SDS011;6774;48.208;10.766;2023-06-19T06:57:34;4.70;;;4.33;;
13406;SDS011;6774;48.208;10.766;2023-06-19T07:00:02;5.40;;;5.10;;
13406;SDS011;6774;48.208;10.766;2023-06-19T07:02:33;5.47;;;5.07;;
13406;SDS011;6774;48.208;10.766;2023-06-19T07:05:02;4.80;;;4.60;;
13406;SDS011;6774;48.208;10.766;2023-06-19T07:07:30;6.17;;;5.67;;
13406;SDS011;6774;48.208;10.766;2023-06-19T07:09:58;4.33;;;4.13;;
13406;SDS011;6774;48.208;10.766;2023-06-19T07:12:26;5.23;;;4.93;;
13406;SDS011;6774;48.208;10.766;2023-06-19T07:14:54;4.33;;;4.13;;
13406;SDS011;6774;48.208;10.766;2023-06-19T07:17:21;4.43;;;3.10;;
13406;SDS011;6774;48.208;10.766;2023-06-19T07:19:49;3.77;;;3.57;;
13406;SDS011;6774;48.208;10.766;2023-06-19T07:22:18;3.67;;;3.47;;
13406;SDS011;6774;48.208;10.766;2023-06-19T07:24:46;4.17;;;3.87;;
13406;SDS011;6774;48.208;10.766;2023-06-19T07:27:14;3.47;;;3.23;;
13406;SDS011;6774;48.208;10.766;2023-06-19T07:29:41;4.07;;;3.77;;
13406;SDS011;6774;48.208;10.766;2023-06-19T07:32:11;5.60;;;4.27;;
13406;SDS011;6774;48.208;10.766;2023-06-19T07:34:39;4.50;;;4.20;;
13406;SDS011;6774;48.208;10.766;2023-06-19T07:37:07;4.67;;;4.27;;
13406;SDS011;6774;48.208;10.766;2023-06-19T07:39:36;4.20;;;4.00;;
13406;SDS011;6774;48.208;10.766;2023-06-19T07:42:04;4.20;;;4.00;;
13406;SDS011;6774;48.208;10.766;2023-06-19T07:44:32;4.63;;;4.33;;
13406;SDS011;6774;48.208;10.766;2023-06-19T07:47:00;4.53;;;4.17;;
13406;SDS011;6774;48.208;10.766;2023-06-19T07:49:27;5.23;;;4.93;;
13406;SDS011;6774;48.208;10.766;2023-06-19T07:51:55;5.23;;;3.83;;
13406;SDS011;6774;48.208;10.766;2023-06-19T07:54:23;5.10;;;4.70;;
13406;SDS011;6774;48.208;10.766;2023-06-19T07:56:52;4.37;;;4.17;;
13406;SDS011;6774;48.208;10.766;2023-06-19T07:59:19;3.90;;;3.70;;
13406;SDS011;6774;48.208;10.766;2023-06-19T08:01:48;4.70;;;4.43;;
13406;SDS011;6774;48.208;10.766;2023-06-19T08:04:15;4.80;;;4.40;;
13406;SDS011;6774;48.208;10.766;2023-06-19T08:06:43;5.80;;;5.27;;
13406;SDS011;6774;48.208;10.766;2023-06-19T08:09:11;5.57;;;4.03;;
13406;SDS011;6774;48.208;10.766;2023-06-19T08:11:40;5.97;;;4.37;;
13406;SDS011;6774;48.208;10.766;2023-06-19T08:14:09;5.03;;;4.15;;
13406;SDS011;6774;48.208;10.766;2023-06-19T08:16:36;19.15;;;5.47;;
13406;SDS011;6774;48.208;10.766;2023-06-19T08:19:04;3.65;;;3.45;;
13406;SDS011;6774;48.208;10.766;2023-06-19T08:21:31;4.15;;;3.95;;
13406;SDS011;6774;48.208;10.766;2023-06-19T08:23:59;57.83;;;10.05;;
13406;SDS011;6774;48.208;10.766;2023-06-19T08:26:27;5.20;;;4.70;;
13406;SDS011;6774;48.208;10.766;2023-06-19T08:28:55;4.38;;;4.18;;
13406;SDS011;6774;48.208;10.766;2023-06-19T08:31:24;5.78;;;3.80;;
13406;SDS011;6774;48.208;10.766;2023-06-19T08:33:53;3.92;;;3.53;;
13406;SDS011;6774;48.208;10.766;2023-06-19T08:36:23;89.05;;;15.13;;
13406;SDS011;6774;48.208;10.766;2023-06-19T08:38:50;4.30;;;4.10;;
13406;SDS011;6774;48.208;10.766;2023-06-19T08:41:19;4.35;;;4.07;;
13406;SDS011;6774;48.208;10.766;2023-06-19T08:43:47;3.97;;;3.55;;
13406;SDS011;6774;48.208;10.766;2023-06-19T08:46:15;3.45;;;3.28;;
13406;SDS011;6774;48.208;10.766;2023-06-19T08:48:50;3.65;;;3.35;;
13406;SDS011;6774;48.208;10.766;2023-06-19T08:51:17;8.13;;;4.43;;
13406;SDS011;6774;48.208;10.766;2023-06-19T08:53:45;3.20;;;3.00;;
13406;SDS011;6774;48.208;10.766;2023-06-19T08:56:14;4.55;;;4.35;;
13406;SDS011;6774;48.208;10.766;2023-06-19T08:58:42;3.63;;;3.42;;
13406;SDS011;6774;48.208;10.766;2023-06-19T09:01:10;3.47;;;3.28;;
13406;SDS011;6774;48.208;10.766;2023-06-19T09:03:39;3.80;;;3.60;;
13406;SDS011;6774;48.208;10.766;2023-06-19T09:06:09;3.83;;;3.63;;
13406;SDS011;6774;48.208;10.766;2023-06-19T09:08:37;3.15;;;3.05;;
13406;SDS011;6774;48.208;10.766;2023-06-19T09:11:04;2.53;;;2.40;;
13406;SDS011;6774;48.208;10.766;2023-06-19T09:13:35;6.25;;;3.67;;
13406;SDS011;6774;48.208;10.766;2023-06-19T09:16:04;2.67;;;2.45;;
13406;SDS011;6774;48.208;10.766;2023-06-19T09:18:41;2.35;;;2.25;;
13406;SDS011;6774;48.208;10.766;2023-06-19T09:21:16;2.03;;;1.92;;
13406;SDS011;6774;48.208;10.766;2023-06-19T09:23:45;3.15;;;2.85;;
13406;SDS011;6774;48.208;10.766;2023-06-19T09:26:15;3.17;;;2.85;;
13406;SDS011;6774;48.208;10.766;2023-06-19T09:28:44;2.40;;;2.20;;
13406;SDS011;6774;48.208;10.766;2023-06-19T09:31:12;2.88;;;2.58;;
13406;SDS011;6774;48.208;10.766;2023-06-19T09:33:40;3.42;;;3.25;;
13406;SDS011;6774;48.208;10.766;2023-06-19T09:36:08;3.47;;;3.28;;
13406;SDS011;6774;48.208;10.766;2023-06-19T09:38:37;2.60;;;2.50;;
13406;SDS011;6774;48.208;10.766;2023-06-19T09:41:10;2.90;;;2.80;;
13406;SDS011;6774;48.208;10.766;2023-06-19T09:43:39;4.85;;;2.97;;
13406;SDS011;6774;48.208;10.766;2023-06-19T09:46:12;2.63;;;2.53;;
13406;SDS011;6774;48.208;10.766;2023-06-19T09:48:45;5.97;;;3.85;;
13406;SDS011;6774;48.208;10.766;2023-06-19T09:51:16;4.82;;;2.55;;
13406;SDS011;6774;48.208;10.766;2023-06-19T09:53:47;3.83;;;3.65;;
13406;SDS011;6774;48.208;10.766;2023-06-19T09:56:15;3.17;;;2.42;;
13406;SDS011;6774;48.208;10.766;2023-06-19T09:58:49;1.98;;;1.88;;
13406;SDS011;6774;48.208;10.766;2023-06-19T10:01:19;2.15;;;2.05;;
13406;SDS011;6774;48.208;10.766;2023-06-19T10:03:48;2.33;;;2.22;;
13406;SDS011;6774;48.208;10.766;2023-06-19T10:06:16;2.10;;;2.00;;
13406;SDS011;6774;48.208;10.766;2023-06-19T10:08:47;4.00;;;1.55;;
13406;SDS011;6774;48.208;10.766;2023-06-19T10:11:15;3.00;;;2.90;;
13406;SDS011;6774;48.208;10.766;2023-06-19T10:13:42;2.47;;;2.33;;
13406;SDS011;6774;48.208;10.766;2023-06-19T10:16:19;3.10;;;2.92;;
13406;SDS011;6774;48.208;10.766;2023-06-19T10:18:47;2.38;;;2.28;;
13406;SDS011;6774;48.208;10.766;2023-06-19T10:21:16;2.72;;;2.63;;
13406;SDS011;6774;48.208;10.766;2023-06-19T10:23:51;3.13;;;2.58;;
13406;SDS011;6774;48.208;10.766;2023-06-19T10:26:31;2.40;;;2.30;;
13406;SDS011;6774;48.208;10.766;2023-06-19T10:29:00;1.83;;;1.73;;
13406;SDS011;6774;48.208;10.766;2023-06-19T10:31:28;2.80;;;2.08;;
13406;SDS011;6774;48.208;10.766;2023-06-19T10:33:56;1.58;;;1.58;;
13406;SDS011;6774;48.208;10.766;2023-06-19T10:36:24;2.35;;;2.25;;
13406;SDS011;6774;48.208;10.766;2023-06-19T10:38:54;2.28;;;2.15;;
13406;SDS011;6774;48.208;10.766;2023-06-19T10:41:22;3.15;;;2.95;;
13406;SDS011;6774;48.208;10.766;2023-06-19T10:43:52;2.92;;;2.72;;
13406;SDS011;6774;48.208;10.766;2023-06-19T10:46:21;2.65;;;2.50;;
13406;SDS011;6774;48.208;10.766;2023-06-19T10:48:50;2.63;;;2.53;;
13406;SDS011;6774;48.208;10.766;2023-06-19T10:51:18;2.85;;;2.75;;
13406;SDS011;6774;48.208;10.766;2023-06-19T10:53:46;2.40;;;2.30;;
13406;SDS011;6774;48.208;10.766;2023-06-19T10:56:15;2.80;;;2.70;;
13406;SDS011;6774;48.208;10.766;2023-06-19T10:58:48;2.83;;;2.63;;
13406;SDS011;6774;48.208;10.766;2023-06-19T11:01:15;3.03;;;2.92;;
13406;SDS011;6774;48.208;10.766;2023-06-19T11:03:43;2.42;;;2.33;;
13406;SDS011;6774;48.208;10.766;2023-06-19T11:06:13;2.53;;;2.42;;
13406;SDS011;6774;48.208;10.766;2023-06-19T11:08:50;2.92;;;2.83;;
13406;SDS011;6774;48.208;10.766;2023-06-19T11:11:20;2.92;;;2.22;;
13406;SDS011;6774;48.208;10.766;2023-06-19T11:13:48;3.10;;;3.00;;
13406;SDS011;6774;48.208;10.766;2023-06-19T11:16:15;2.42;;;2.22;;
13406;SDS011;6774;48.208;10.766;2023-06-19T11:18:43;1.98;;;1.88;;
13406;SDS011;6774;48.208;10.766;2023-06-19T11:21:11;2.28;;;2.17;;
13406;SDS011;6774;48.208;10.766;2023-06-19T11:23:39;1.98;;;1.88;;
13406;SDS011;6774;48.208;10.766;2023-06-19T11:26:06;2.63;;;2.47;;
13406;SDS011;6774;48.208;10.766;2023-06-19T11:28:37;2.83;;;2.72;;
13406;SDS011;6774;48.208;10.766;2023-06-19T11:31:04;2.67;;;2.08;;
13406;SDS011;6774;48.208;10.766;2023-06-19T11:33:32;2.35;;;2.25;;
13406;SDS011;6774;48.208;10.766;2023-06-19T11:36:00;2.80;;;2.70;;
13406;SDS011;6774;48.208;10.766;2023-06-19T11:38:30;2.15;;;2.05;;
13406;SDS011;6774;48.208;10.766;2023-06-19T11:40:58;1.83;;;1.80;;
13406;SDS011;6774;48.208;10.766;2023-06-19T11:43:25;1.70;;;1.60;;
13406;SDS011;6774;48.208;10.766;2023-06-19T11:46:01;8.32;;;5.32;;
13406;SDS011;6774;48.208;10.766;2023-06-19T11:48:30;1.48;;;1.38;;
13406;SDS011;6774;48.208;10.766;2023-06-19T11:50:59;2.08;;;1.98;;
13406;SDS011;6774;48.208;10.766;2023-06-19T11:53:26;1.88;;;1.77;;
13406;SDS011;6774;48.208;10.766;2023-06-19T11:55:55;1.40;;;1.40;;
13406;SDS011;6774;48.208;10.766;2023-06-19T11:58:23;2.25;;;2.13;;
13406;SDS011;6774;48.208;10.766;2023-06-19T12:00:52;2.17;;;2.08;;
13406;SDS011;6774;48.208;10.766;2023-06-19T12:03:24;3.15;;;2.00;;
13406;SDS011;6774;48.208;10.766;2023-06-19T12:05:52;1.92;;;1.83;;
13406;SDS011;6774;48.208;10.766;2023-06-19T12:08:20;2.30;;;2.20;;
13406;SDS011;6774;48.208;10.766;2023-06-19T12:10:48;1.95;;;1.85;;
13406;SDS011;6774;48.208;10.766;2023-06-19T12:13:16;2.58;;;1.83;;
13406;SDS011;6774;48.208;10.766;2023-06-19T12:15:43;1.88;;;1.77;;
13406;SDS011;6774;48.208;10.766;2023-06-19T12:18:11;2.58;;;1.88;;
13406;SDS011;6774;48.208;10.766;2023-06-19T12:20:41;1.73;;;1.63;;
13406;SDS011;6774;48.208;10.766;2023-06-19T12:23:09;4.10;;;2.22;;
13406;SDS011;6774;48.208;10.766;2023-06-19T12:25:37;3.13;;;1.98;;
13406;SDS011;6774;48.208;10.766;2023-06-19T12:28:04;2.30;;;2.20;;
13406;SDS011;6774;48.208;10.766;2023-06-19T12:30:34;2.58;;;2.38;;
13406;SDS011;6774;48.208;10.766;2023-06-19T12:33:02;2.35;;;2.25;;
13406;SDS011;6774;48.208;10.766;2023-06-19T12:35:30;2.10;;;2.00;;
13406;SDS011;6774;48.208;10.766;2023-06-19T12:38:00;4.78;;;2.47;;
13406;SDS011;6774;48.208;10.766;2023-06-19T12:40:29;3.17;;;2.17;;
13406;SDS011;6774;48.208;10.766;2023-06-19T12:42:57;5.05;;;1.98;;
13406;SDS011;6774;48.208;10.766;2023-06-19T12:45:25;1.98;;;1.88;;
13406;SDS011;6774;48.208;10.766;2023-06-19T12:47:53;2.17;;;2.08;;
13406;SDS011;6774;48.208;10.766;2023-06-19T12:50:21;2.25;;;2.15;;
13406;SDS011;6774;48.208;10.766;2023-06-19T12:52:49;3.45;;;3.08;;
13406;SDS011;6774;48.208;10.766;2023-06-19T12:55:19;2.28;;;1.95;;
13406;SDS011;6774;48.208;10.766;2023-06-19T12:57:47;2.17;;;2.08;;
13406;SDS011;6774;48.208;10.766;2023-06-19T13:00:15;2.30;;;2.20;;
13406;SDS011;6774;48.208;10.766;2023-06-19T13:02:42;2.58;;;2.47;;
13406;SDS011;6774;48.208;10.766;2023-06-19T13:05:12;2.20;;;2.10;;
13406;SDS011;6774;48.208;10.766;2023-06-19T13:07:40;2.00;;;1.90;;
13406;SDS011;6774;48.208;10.766;2023-06-19T13:10:08;2.40;;;2.30;;
13406;SDS011;6774;48.208;10.766;2023-06-19T13:12:38;2.13;;;2.03;;
13406;SDS011;6774;48.208;10.766;2023-06-19T13:15:06;2.55;;;2.35;;
13406;SDS011;6774;48.208;10.766;2023-06-19T13:17:34;2.20;;;2.10;;
13406;SDS011;6774;48.208;10.766;2023-06-19T13:20:03;2.55;;;2.45;;
13406;SDS011;6774;48.208;10.766;2023-06-19T13:22:31;2.58;;;2.38;;
13406;SDS011;6774;48.208;10.766;2023-06-19T13:24:59;2.42;;;2.33;;
13406;SDS011;6774;48.208;10.766;2023-06-19T13:27:27;3.45;;;3.15;;
13406;SDS011;6774;48.208;10.766;2023-06-19T13:29:56;2.80;;;2.70;;
13406;SDS011;6774;48.208;10.766;2023-06-19T13:32:24;2.90;;;2.80;;
13406;SDS011;6774;48.208;10.766;2023-06-19T13:34:52;2.90;;;2.70;;
13406;SDS011;6774;48.208;10.766;2023-06-19T13:37:20;3.08;;;2.97;;
13406;SDS011;6774;48.208;10.766;2023-06-19T13:39:47;5.20;;;2.97;;
13406;SDS011;6774;48.208;10.766;2023-06-19T13:42:15;2.40;;;2.30;;
13406;SDS011;6774;48.208;10.766;2023-06-19T13:44:43;2.85;;;2.70;;
13406;SDS011;6774;48.208;10.766;2023-06-19T13:47:12;2.83;;;2.67;;
13406;SDS011;6774;48.208;10.766;2023-06-19T13:49:40;5.30;;;3.22;;
13406;SDS011;6774;48.208;10.766;2023-06-19T13:52:07;2.80;;;2.65;;
13406;SDS011;6774;48.208;10.766;2023-06-19T13:54:35;3.00;;;2.90;;
13406;SDS011;6774;48.208;10.766;2023-06-19T13:57:04;3.35;;;3.25;;
13406;SDS011;6774;48.208;10.766;2023-06-19T13:59:32;3.30;;;2.80;;
13406;SDS011;6774;48.208;10.766;2023-06-19T14:02:00;2.67;;;2.58;;
13406;SDS011;6774;48.208;10.766;2023-06-19T14:04:30;3.63;;;3.50;;
13406;SDS011;6774;48.208;10.766;2023-06-19T14:06:58;4.20;;;3.53;;
13406;SDS011;6774;48.208;10.766;2023-06-19T14:09:26;3.25;;;2.92;;
13406;SDS011;6774;48.208;10.766;2023-06-19T14:11:54;4.63;;;4.10;;
13406;SDS011;6774;48.208;10.766;2023-06-19T14:14:22;3.38;;;3.17;;
13406;SDS011;6774;48.208;10.766;2023-06-19T14:16:50;4.22;;;4.03;;
13406;SDS011;6774;48.208;10.766;2023-06-19T14:19:18;3.80;;;3.50;;
13406;SDS011;6774;48.208;10.766;2023-06-19T14:21:47;4.28;;;2.88;;
13406;SDS011;6774;48.208;10.766;2023-06-19T14:24:15;3.47;;;3.22;;
13406;SDS011;6774;48.208;10.766;2023-06-19T14:26:43;55.42;;;10.55;;
13406;SDS011;6774;48.208;10.766;2023-06-19T14:29:11;3.60;;;3.40;;
13406;SDS011;6774;48.208;10.766;2023-06-19T14:31:41;3.33;;;3.13;;
13406;SDS011;6774;48.208;10.766;2023-06-19T14:34:09;3.53;;;3.22;;
13406;SDS011;6774;48.208;10.766;2023-06-19T14:36:37;3.25;;;3.13;;
13406;SDS011;6774;48.208;10.766;2023-06-19T14:39:07;3.33;;;3.22;;
13406;SDS011;6774;48.208;10.766;2023-06-19T14:41:35;2.63;;;2.53;;
13406;SDS011;6774;48.208;10.766;2023-06-19T14:44:02;3.70;;;3.50;;
13406;SDS011;6774;48.208;10.766;2023-06-19T14:46:31;3.17;;;3.08;;
13406;SDS011;6774;48.208;10.766;2023-06-19T14:49:05;2.78;;;2.67;;
13406;SDS011;6774;48.208;10.766;2023-06-19T14:51:33;3.22;;;2.42;;
13406;SDS011;6774;48.208;10.766;2023-06-19T14:54:01;3.08;;;2.85;;